Time;durP1;ratioP1;P1;durP2;ratioP2;P2;SDS_P1;SDS_P2;PMS_P1;PMS_P2;Temp;Humidity;BMP_temperature;BMP_pressure;BME280_temperature;BME280_humidity;BME280_pressure;Samples;Min_cycle;Max_cycle;Signal;HPM_P1;HPM_P2
2023/06/21 00:01:49;;;;;;;15.40;11.15;;;20.80;81.00;;;;;;4927981;29;21087;-78
2023/06/21 00:04:17;;;;;;;15.93;11.07;;;20.80;81.00;;;;;;4930949;29;20100;-78
2023/06/21 00:06:49;;;;;;;14.77;11.80;;;20.80;81.20;;;;;;4929175;29;20052;-78
2023/06/21 00:09:16;;;;;;;14.97;11.10;;;20.80;81.20;;;;;;4932702;29;20147;-78
2023/06/21 00:11:44;;;;;;;17.45;11.40;;;20.80;81.00;;;;;;4933683;29;20109;-78
2023/06/21 00:14:13;;;;;;;14.95;11.00;;;20.70;80.90;;;;;;4932589;29;20491;-78
2023/06/21 00:16:40;;;;;;;14.15;11.18;;;20.70;80.90;;;;;;4948432;28;20184;-78
2023/06/21 00:19:07;;;;;;;14.95;10.32;;;20.70;80.80;;;;;;4947483;28;20062;-78
2023/06/21 00:21:34;;;;;;;14.63;11.23;;;20.70;80.80;;;;;;4932033;29;20082;-78
2023/06/21 00:24:41;;;;;;;16.88;10.52;;;20.70;80.80;;;;;;4932512;29;20048;-78
2023/06/21 00:27:08;;;;;;;14.15;10.40;;;20.80;80.70;;;;;;4932253;29;20462;-78
2023/06/21 00:29:36;;;;;;;14.98;10.68;;;20.70;80.60;;;;;;4932601;29;21061;-79
2023/06/21 00:32:04;;;;;;;16.33;11.10;;;20.70;80.50;;;;;;4948171;28;20660;-78
2023/06/21 00:34:31;;;;;;;17.40;11.77;;;20.70;80.50;;;;;;4932199;29;20139;-78
2023/06/21 00:36:58;;;;;;;15.52;11.15;;;20.70;80.50;;;;;;4947105;28;20064;-78
2023/06/21 00:39:25;;;;;;;15.38;12.18;;;20.70;80.50;;;;;;4932504;29;20586;-79
2023/06/21 00:41:53;;;;;;;16.80;11.30;;;20.70;80.70;;;;;;4916556;29;20131;-78
2023/06/21 00:44:20;;;;;;;16.45;11.20;;;20.70;80.80;;;;;;4932246;29;20216;-78
2023/06/21 00:46:49;;;;;;;15.10;12.07;;;20.70;80.70;;;;;;4932487;29;20154;-78
2023/06/21 00:49:17;;;;;;;15.65;11.65;;;20.60;80.90;;;;;;4915663;29;20048;-78
2023/06/21 00:51:46;;;;;;;16.95;11.98;;;20.60;80.80;;;;;;4932950;28;20066;-78
2023/06/21 00:54:16;;;;;;;15.32;11.18;;;20.60;80.90;;;;;;4913737;29;20805;-78
2023/06/21 00:56:43;;;;;;;14.23;11.27;;;20.60;80.80;;;;;;4947352;28;20048;-79
2023/06/21 00:59:11;;;;;;;15.83;11.97;;;20.50;80.90;;;;;;4931010;29;20048;-78
2023/06/21 01:01:38;;;;;;;13.68;10.45;;;20.50;81.00;;;;;;4915221;29;20111;-78
2023/06/21 01:04:08;;;;;;;14.73;10.82;;;20.50;81.00;;;;;;4915305;29;20063;-78
2023/06/21 01:06:51;;;;;;;15.13;11.27;;;20.50;81.00;;;;;;4932886;28;20052;-78
2023/06/21 01:09:30;;;;;;;16.80;11.55;;;20.50;80.90;;;;;;4946983;28;20052;-78
2023/06/21 01:12:05;;;;;;;14.10;11.00;;;20.40;81.10;;;;;;4929837;29;20131;-78
2023/06/21 01:14:39;;;;;;;15.63;11.25;;;20.40;80.90;;;;;;4929413;29;20056;-78
2023/06/21 01:17:08;;;;;;;15.95;12.00;;;20.40;81.10;;;;;;4947069;28;20161;-78
2023/06/21 01:19:42;;;;;;;15.23;11.13;;;20.30;81.00;;;;;;4930886;29;20072;-78
2023/06/21 01:22:19;;;;;;;16.58;11.80;;;20.30;81.00;;;;;;4930983;29;20127;-78
2023/06/21 01:24:58;;;;;;;16.00;12.13;;;20.30;81.00;;;;;;4912070;29;20145;-78
2023/06/21 01:27:38;;;;;;;16.63;11.88;;;20.30;81.00;;;;;;4925298;29;20056;-78
2023/06/21 01:30:09;;;;;;;16.90;12.90;;;20.30;81.00;;;;;;4913935;29;20060;-78
2023/06/21 01:32:39;;;;;;;19.35;14.05;;;20.20;81.10;;;;;;4927790;29;20060;-78
2023/06/21 01:35:08;;;;;;;19.40;13.98;;;20.20;81.10;;;;;;4927886;29;20136;-78
2023/06/21 01:37:35;;;;;;;18.43;13.93;;;20.10;81.20;;;;;;4915241;29;20551;-79
2023/06/21 01:40:09;;;;;;;20.33;15.20;;;20.10;81.40;;;;;;4915073;29;20052;-78
2023/06/21 01:42:37;;;;;;;21.90;15.07;;;20.10;81.60;;;;;;4930870;29;20489;-78
2023/06/21 01:45:06;;;;;;;20.88;15.82;;;20.10;81.50;;;;;;4931102;29;20056;-78
2023/06/21 01:47:35;;;;;;;21.85;15.40;;;20.10;81.70;;;;;;4930128;29;20048;-79
2023/06/21 01:50:03;;;;;;;23.13;16.60;;;20.00;81.90;;;;;;4932280;28;20098;-78
2023/06/21 01:52:30;;;;;;;21.23;16.17;;;20.00;82.10;;;;;;4930846;29;20072;-78
2023/06/21 01:54:58;;;;;;;24.58;18.55;;;20.00;82.10;;;;;;4914850;29;20052;-78
2023/06/21 01:57:28;;;;;;;23.38;17.05;;;20.00;82.30;;;;;;4946457;28;20056;-78
2023/06/21 01:59:55;;;;;;;25.05;17.45;;;20.00;82.50;;;;;;4930783;29;20052;-78
2023/06/21 02:02:25;;;;;;;23.83;16.60;;;19.90;82.70;;;;;;4914653;29;20068;-78
2023/06/21 02:04:53;;;;;;;22.77;17.38;;;19.90;82.60;;;;;;4929294;29;20052;-78
2023/06/21 02:07:22;;;;;;;24.30;17.00;;;19.80;82.90;;;;;;4930590;29;20147;-78
2023/06/21 02:09:49;;;;;;;26.17;19.23;;;19.80;82.90;;;;;;4914553;29;20175;-78
2023/06/21 02:12:17;;;;;;;26.75;18.17;;;19.70;83.30;;;;;;4930328;29;20052;-78
2023/06/21 02:14:44;;;;;;;24.97;17.97;;;19.70;83.50;;;;;;4930411;29;20052;-78
2023/06/21 02:17:12;;;;;;;26.38;18.65;;;19.70;83.80;;;;;;4914714;29;20140;-78
2023/06/21 02:19:40;;;;;;;27.70;18.25;;;19.70;83.60;;;;;;4946413;28;20048;-78
2023/06/21 02:22:08;;;;;;;27.48;19.35;;;19.70;83.90;;;;;;4929164;29;20060;-78
2023/06/21 02:24:35;;;;;;;29.15;19.75;;;19.70;83.80;;;;;;4930183;29;20111;-78
2023/06/21 02:27:02;;;;;;;32.77;23.07;;;19.70;84.00;;;;;;4932011;29;20138;-78
2023/06/21 02:29:29;;;;;;;31.80;21.98;;;19.70;84.30;;;;;;4946196;28;20056;-78
2023/06/21 02:31:56;;;;;;;32.80;22.70;;;19.60;84.20;;;;;;4929977;29;20131;-78
2023/06/21 02:34:24;;;;;;;31.05;21.50;;;19.60;84.40;;;;;;4930198;29;20068;-78
2023/06/21 02:36:54;;;;;;;32.05;21.58;;;19.60;84.40;;;;;;4930039;29;20079;-78
2023/06/21 02:39:22;;;;;;;34.70;23.40;;;19.50;84.30;;;;;;4930488;29;20052;-78
2023/06/21 02:41:51;;;;;;;32.90;22.13;;;19.50;84.50;;;;;;4929841;29;20048;-78
2023/06/21 02:44:18;;;;;;;33.50;22.42;;;19.50;84.30;;;;;;4913938;29;20052;-78
2023/06/21 02:46:46;;;;;;;34.83;22.70;;;19.50;84.40;;;;;;4930060;29;20064;-78
2023/06/21 02:49:13;;;;;;;31.67;20.98;;;19.50;84.20;;;;;;4913866;29;20048;-78
2023/06/21 02:51:41;;;;;;;34.60;23.70;;;19.50;84.20;;;;;;4945304;28;20052;-78
2023/06/21 02:54:10;;;;;;;38.72;23.58;;;19.40;84.10;;;;;;4945864;28;20055;-78
2023/06/21 02:56:37;;;;;;;35.20;22.88;;;19.40;84.30;;;;;;4913085;29;20652;-78
2023/06/21 02:59:04;;;;;;;36.53;22.58;;;19.40;84.20;;;;;;4912799;29;20586;-79
2023/06/21 03:01:32;;;;;;;36.13;23.38;;;19.40;84.20;;;;;;4929577;29;20044;-78
2023/06/21 03:03:59;;;;;;;35.30;23.23;;;19.50;84.20;;;;;;4931257;29;20135;-78
2023/06/21 03:06:29;;;;;;;33.92;22.65;;;19.50;84.20;;;;;;4945290;28;20048;-78
2023/06/21 03:08:57;;;;;;;35.55;23.58;;;19.40;84.10;;;;;;4930039;29;20056;-78
2023/06/21 03:11:26;;;;;;;34.70;23.42;;;19.40;84.30;;;;;;4931449;29;20059;-78
2023/06/21 03:13:53;;;;;;;38.20;24.13;;;19.40;84.20;;;;;;4929492;29;20100;-78
2023/06/21 03:16:21;;;;;;;34.37;22.17;;;19.40;84.20;;;;;;4912318;29;20618;-78
2023/06/21 03:18:48;;;;;;;36.75;24.77;;;19.40;84.40;;;;;;4929565;29;20068;-78
2023/06/21 03:21:15;;;;;;;36.58;23.45;;;19.40;84.40;;;;;;4930679;28;20064;-78
2023/06/21 03:23:43;;;;;;;33.30;21.38;;;19.40;84.40;;;;;;4945086;28;20056;-78
2023/06/21 03:26:11;;;;;;;36.63;23.40;;;19.40;84.40;;;;;;4913118;29;20526;-78
2023/06/21 03:28:41;;;;;;;35.57;22.93;;;19.30;84.40;;;;;;4913638;29;20084;-78
2023/06/21 03:31:09;;;;;;;34.95;22.92;;;19.40;84.50;;;;;;4913392;29;20055;-78
2023/06/21 03:33:37;;;;;;;37.45;24.15;;;19.30;84.40;;;;;;4911922;29;20112;-79
2023/06/21 03:36:05;;;;;;;36.90;23.15;;;19.30;84.40;;;;;;4913512;29;20463;-78
2023/06/21 03:38:34;;;;;;;36.92;24.25;;;19.30;84.50;;;;;;4929135;29;20052;-78
2023/06/21 03:41:01;;;;;;;38.97;25.37;;;19.30;84.60;;;;;;4929298;29;20044;-78
2023/06/21 03:43:30;;;;;;;40.63;24.42;;;19.30;84.70;;;;;;4929885;29;21019;-80
2023/06/21 03:46:01;;;;;;;35.78;23.25;;;19.30;84.70;;;;;;4916724;29;20079;-80
2023/06/21 03:48:29;;;;;;;37.88;24.33;;;19.30;84.70;;;;;;4916977;29;20052;-80
2023/06/21 03:50:56;;;;;;;39.20;25.95;;;19.30;84.70;;;;;;4930183;29;20858;-80
2023/06/21 03:53:27;;;;;;;39.67;26.10;;;19.30;84.80;;;;;;4931797;29;20060;-81
2023/06/21 03:55:54;;;;;;;38.00;25.67;;;19.30;84.80;;;;;;4930837;29;20051;-80
2023/06/21 03:58:21;;;;;;;38.38;23.73;;;19.20;84.80;;;;;;4915188;29;20051;-80
2023/06/21 04:00:49;;;;;;;37.58;23.95;;;19.20;84.80;;;;;;4932241;29;20175;-80
2023/06/21 04:03:19;;;;;;;38.22;25.20;;;19.20;84.80;;;;;;4916624;29;20064;-80
2023/06/21 04:05:46;;;;;;;39.80;24.47;;;19.20;84.90;;;;;;4917036;29;20519;-80
2023/06/21 04:08:13;;;;;;;36.40;23.17;;;19.20;85.00;;;;;;4932610;28;20068;-80
2023/06/21 04:10:41;;;;;;;38.60;24.50;;;19.20;84.90;;;;;;4932634;29;20647;-81
2023/06/21 04:13:08;;;;;;;39.60;26.25;;;19.20;85.00;;;;;;4948282;28;20049;-80
2023/06/21 04:15:36;;;;;;;37.35;24.17;;;19.20;85.00;;;;;;4933619;29;20056;-80
2023/06/21 04:18:03;;;;;;;41.63;26.60;;;19.20;85.10;;;;;;4916351;29;20131;-81
2023/06/21 04:20:33;;;;;;;39.95;26.08;;;19.20;85.00;;;;;;4916511;29;20055;-80
2023/06/21 04:23:00;;;;;;;39.05;24.55;;;19.20;84.90;;;;;;4948021;28;20068;-81
2023/06/21 04:25:27;;;;;;;40.40;25.00;;;19.20;85.00;;;;;;4915378;29;20048;-80
2023/06/21 04:27:55;;;;;;;42.65;26.77;;;19.20;85.10;;;;;;4916627;29;20056;-80
2023/06/21 04:30:22;;;;;;;39.63;25.83;;;19.20;85.30;;;;;;4916381;29;20083;-80
2023/06/21 04:32:49;;;;;;;38.60;25.08;;;19.20;85.20;;;;;;4948286;28;20503;-80
2023/06/21 04:35:17;;;;;;;41.28;26.42;;;19.20;85.20;;;;;;4932170;29;20059;-81
2023/06/21 04:37:48;;;;;;;38.70;24.60;;;19.20;85.30;;;;;;4932229;29;20494;-80
2023/06/21 04:40:16;;;;;;;41.10;26.27;;;19.20;85.30;;;;;;4933528;28;21055;-80
2023/06/21 04:42:45;;;;;;;42.23;26.43;;;19.20;85.40;;;;;;4932228;29;20052;-81
2023/06/21 04:45:14;;;;;;;41.10;25.98;;;19.20;85.60;;;;;;4931079;29;20163;-81
2023/06/21 04:47:41;;;;;;;41.35;26.52;;;19.20;85.50;;;;;;4948034;28;20563;-80
2023/06/21 04:50:11;;;;;;;41.47;25.73;;;19.20;85.40;;;;;;4948075;28;20127;-81
2023/06/21 04:52:38;;;;;;;42.67;27.00;;;19.20;85.50;;;;;;4947781;28;20083;-81
2023/06/21 04:55:08;;;;;;;40.77;25.47;;;19.20;85.30;;;;;;4931902;29;20058;-81
2023/06/21 04:57:35;;;;;;;41.33;26.65;;;19.20;85.40;;;;;;4931983;29;20084;-81
2023/06/21 05:00:07;;;;;;;40.40;26.40;;;19.20;85.50;;;;;;4933114;29;20163;-81
2023/06/21 05:02:34;;;;;;;40.80;25.33;;;19.20;85.50;;;;;;4914465;29;20147;-81
2023/06/21 05:05:01;;;;;;;44.08;25.85;;;19.20;85.40;;;;;;4933240;29;20064;-80
2023/06/21 05:07:28;;;;;;;41.27;26.37;;;19.20;85.40;;;;;;4931974;29;20111;-81
2023/06/21 05:09:55;;;;;;;42.55;27.05;;;19.20;85.50;;;;;;4932769;28;20060;-81
2023/06/21 05:12:24;;;;;;;41.40;26.30;;;19.20;85.50;;;;;;4932357;29;20923;-81
2023/06/21 05:14:51;;;;;;;43.90;27.48;;;19.20;85.50;;;;;;4930995;29;20058;-80
2023/06/21 05:17:18;;;;;;;44.65;27.95;;;19.20;85.50;;;;;;4931366;29;20059;-81
2023/06/21 05:19:45;;;;;;;44.97;27.53;;;19.20;85.60;;;;;;4932166;29;20092;-81
2023/06/21 05:22:12;;;;;;;46.97;28.45;;;19.30;85.70;;;;;;4937336;28;20127;-83
2023/06/21 05:24:39;;;;;;;46.22;28.40;;;19.30;85.60;;;;;;4930528;29;20585;-81
2023/06/21 05:27:07;;;;;;;44.53;28.60;;;19.30;85.80;;;;;;4914053;29;20519;-81
2023/06/21 05:29:35;;;;;;;43.60;27.55;;;19.30;85.70;;;;;;4930183;29;20048;-81
2023/06/21 05:32:02;;;;;;;45.93;28.70;;;19.30;85.70;;;;;;4929695;29;20080;-81
2023/06/21 05:34:31;;;;;;;43.28;26.70;;;19.30;85.70;;;;;;4930260;29;20059;-81
2023/06/21 05:36:57;;;;;;;50.45;29.83;;;19.30;85.80;;;;;;4928552;29;20082;-81
2023/06/21 05:39:25;;;;;;;44.97;27.20;;;19.30;85.70;;;;;;4960117;28;20059;-81
2023/06/21 05:41:52;;;;;;;47.35;28.83;;;19.40;85.90;;;;;;4929735;29;20048;-81
2023/06/21 05:44:18;;;;;;;44.20;27.17;;;19.40;85.90;;;;;;4913945;29;20055;-81
2023/06/21 05:46:47;;;;;;;43.45;26.83;;;19.40;85.70;;;;;;4929850;29;20044;-81
2023/06/21 05:49:14;;;;;;;48.28;28.55;;;19.40;85.90;;;;;;4929826;29;20054;-81
2023/06/21 05:51:40;;;;;;;44.80;27.00;;;19.40;85.90;;;;;;4961998;28;20147;-81
2023/06/21 05:54:08;;;;;;;43.78;25.85;;;19.40;86.00;;;;;;4931482;29;20052;-82
2023/06/21 05:56:37;;;;;;;38.93;25.27;;;19.50;86.10;;;;;;4928542;29;20056;-81
2023/06/21 05:59:04;;;;;;;44.40;26.42;;;19.50;86.10;;;;;;4961640;28;20530;-81
2023/06/21 06:01:31;;;;;;;43.53;26.95;;;19.50;85.90;;;;;;4929083;29;20056;-82
2023/06/21 06:03:59;;;;;;;36.83;20.92;;;19.50;86.00;;;;;;4927806;29;20621;-81
2023/06/21 06:06:35;;;;;;;37.55;21.13;;;19.50;86.10;;;;;;4930130;29;20052;-81
2023/06/21 06:09:02;;;;;;;34.53;20.90;;;19.50;85.70;;;;;;4913609;28;20498;-81
2023/06/21 06:11:29;;;;;;;31.45;19.45;;;19.60;85.20;;;;;;4933999;28;20055;-82
2023/06/21 06:13:56;;;;;;;30.75;19.70;;;19.50;85.10;;;;;;4925179;28;20044;-82
2023/06/21 06:16:23;;;;;;;28.35;18.25;;;19.50;85.40;;;;;;4927883;29;20049;-81
2023/06/21 06:18:50;;;;;;;23.55;14.07;;;19.60;85.10;;;;;;4932842;28;20052;-81
2023/06/21 06:21:21;;;;;;;22.63;13.40;;;19.70;84.60;;;;;;4946148;28;20063;-82
2023/06/21 06:23:50;;;;;;;25.45;13.73;;;19.70;84.00;;;;;;4928926;29;20139;-82
2023/06/21 06:26:21;;;;;;;22.23;13.65;;;19.70;83.90;;;;;;4928122;29;20056;-81
2023/06/21 06:28:48;;;;;;;24.17;14.48;;;19.70;83.30;;;;;;4927890;29;20133;-81
2023/06/21 06:31:15;;;;;;;24.42;13.52;;;19.70;83.50;;;;;;4958888;28;20060;-81
2023/06/21 06:33:42;;;;;;;20.00;11.47;;;19.70;83.70;;;;;;4927438;29;20559;-82
2023/06/21 06:36:09;;;;;;;21.50;14.43;;;19.70;83.70;;;;;;4927205;29;20071;-82
2023/06/21 06:38:38;;;;;;;21.25;12.85;;;19.70;83.50;;;;;;4930693;29;20051;-81
2023/06/21 06:41:06;;;;;;;19.15;12.43;;;19.80;82.90;;;;;;4929081;29;20139;-82
2023/06/21 06:43:34;;;;;;;18.67;10.02;;;19.70;82.50;;;;;;4943780;28;20052;-82
2023/06/21 06:46:01;;;;;;;16.23;10.33;;;19.80;81.50;;;;;;4928695;28;20043;-81
2023/06/21 06:48:28;;;;;;;16.10;10.18;;;19.90;81.70;;;;;;4917689;29;20071;-81
2023/06/21 06:50:55;;;;;;;16.40;10.30;;;19.90;82.10;;;;;;4923984;29;20588;-81
2023/06/21 06:53:22;;;;;;;15.57;9.38;;;19.90;81.50;;;;;;4942093;28;20904;-80
2023/06/21 06:55:52;;;;;;;15.55;9.38;;;19.90;80.90;;;;;;4928022;29;20659;-83
2023/06/21 06:58:19;;;;;;;14.50;8.90;;;19.90;80.40;;;;;;4927112;28;20060;-82
2023/06/21 07:00:46;;;;;;;15.07;8.43;;;20.00;80.40;;;;;;4920145;29;20052;-83
2023/06/21 07:03:13;;;;;;;12.48;8.02;;;20.00;80.20;;;;;;4924365;29;20056;-82
2023/06/21 07:05:43;;;;;;;16.10;9.32;;;20.00;80.20;;;;;;4939180;28;20058;-81
2023/06/21 07:08:11;;;;;;;12.07;6.90;;;20.00;80.00;;;;;;4925022;28;20057;-82
2023/06/21 07:10:38;;;;;;;13.93;7.60;;;20.00;79.90;;;;;;4928498;29;20067;-81
2023/06/21 07:13:07;;;;;;;12.35;7.25;;;20.10;80.20;;;;;;4923432;29;20063;-81
2023/06/21 07:15:34;;;;;;;11.13;7.38;;;20.10;79.50;;;;;;4928263;29;20905;-81
2023/06/21 07:18:02;;;;;;;13.07;7.25;;;20.10;79.10;;;;;;4926938;28;20052;-80
2023/06/21 07:20:29;;;;;;;12.43;7.82;;;20.20;79.30;;;;;;4943304;28;20139;-80
2023/06/21 07:22:56;;;;;;;11.77;7.10;;;20.30;78.70;;;;;;4929535;29;20066;-80
2023/06/21 07:25:24;;;;;;;15.02;7.53;;;20.30;78.70;;;;;;4929604;28;20056;-79
2023/06/21 07:27:51;;;;;;;13.18;7.35;;;20.30;78.70;;;;;;4926122;29;20048;-81
2023/06/21 07:30:22;;;;;;;12.50;7.85;;;20.30;78.40;;;;;;4943606;28;20052;-82
2023/06/21 07:32:49;;;;;;;11.38;6.60;;;20.40;77.90;;;;;;4945229;28;20060;-82
2023/06/21 07:35:17;;;;;;;11.87;6.90;;;20.50;77.60;;;;;;4928789;29;20055;-81
2023/06/21 07:37:45;;;;;;;11.35;6.65;;;20.50;77.60;;;;;;4925415;28;20056;-82
2023/06/21 07:40:13;;;;;;;12.05;7.57;;;20.50;77.60;;;;;;4939357;28;20059;-82
2023/06/21 07:42:40;;;;;;;12.00;7.05;;;20.50;77.10;;;;;;4908198;29;20045;-81
2023/06/21 07:45:08;;;;;;;11.35;6.80;;;20.50;77.10;;;;;;4928149;29;20058;-82
2023/06/21 07:47:37;;;;;;;11.37;6.87;;;20.60;77.20;;;;;;4929634;28;20147;-82
2023/06/21 07:50:05;;;;;;;11.00;6.82;;;20.60;77.50;;;;;;4941242;28;21111;-81
2023/06/21 07:52:32;;;;;;;10.07;6.97;;;20.70;76.90;;;;;;4925859;28;20048;-81
2023/06/21 07:54:59;;;;;;;8.90;5.18;;;20.70;76.50;;;;;;4941572;28;20056;-81
2023/06/21 07:57:26;;;;;;;9.80;4.03;;;20.70;75.60;;;;;;4930945;29;20076;-81
2023/06/21 07:59:54;;;;;;;8.80;5.50;;;20.70;75.40;;;;;;4928225;29;20056;-81
2023/06/21 08:02:20;;;;;;;9.32;5.57;;;20.80;74.80;;;;;;4929224;29;20059;-81
2023/06/21 08:04:49;;;;;;;11.52;6.80;;;20.80;75.30;;;;;;4956867;28;20813;-80
2023/06/21 08:07:17;;;;;;;11.25;6.80;;;20.80;75.00;;;;;;4912982;29;20052;-82
2023/06/21 08:09:44;;;;;;;11.02;6.93;;;20.90;75.50;;;;;;4945161;28;20040;-83
2023/06/21 08:12:13;;;;;;;10.73;6.53;;;20.90;75.60;;;;;;4922596;29;20503;-82
2023/06/21 08:14:40;;;;;;;10.60;4.40;;;21.00;75.90;;;;;;4926215;28;20567;-81
2023/06/21 08:17:07;;;;;;;9.88;5.60;;;21.00;75.80;;;;;;4928467;29;20060;-80
2023/06/21 08:19:34;;;;;;;7.57;4.63;;;21.10;75.40;;;;;;4943490;28;20052;-81
2023/06/21 08:22:03;;;;;;;8.32;4.57;;;21.10;75.00;;;;;;4927271;29;20498;-81
2023/06/21 08:24:30;;;;;;;8.63;5.10;;;21.10;73.80;;;;;;4943695;28;20056;-82
2023/06/21 08:26:57;;;;;;;9.13;4.82;;;21.20;72.90;;;;;;4926396;28;20048;-80
2023/06/21 08:29:24;;;;;;;4.95;2.65;;;21.30;72.90;;;;;;4960489;28;20044;-81
2023/06/21 08:31:51;;;;;;;6.03;3.17;;;21.30;71.30;;;;;;4931880;28;20270;-80
2023/06/21 08:34:18;;;;;;;8.32;4.03;;;21.30;70.80;;;;;;4945518;28;20482;-81
2023/06/21 08:36:45;;;;;;;7.60;4.47;;;21.30;71.10;;;;;;4935437;28;20131;-81
2023/06/21 08:39:14;;;;;;;7.28;3.50;;;21.40;71.40;;;;;;4931828;29;20098;-81
2023/06/21 08:41:42;;;;;;;7.50;3.75;;;21.40;71.00;;;;;;4931405;29;20481;-81
2023/06/21 08:44:09;;;;;;;7.80;4.60;;;21.50;71.30;;;;;;4947144;28;20052;-81
2023/06/21 08:46:36;;;;;;;6.05;3.17;;;21.50;70.80;;;;;;4932004;29;20515;-81
2023/06/21 08:49:05;;;;;;;6.30;4.13;;;21.60;70.20;;;;;;4931613;29;20091;-81
2023/06/21 08:51:33;;;;;;;7.97;4.13;;;21.60;69.20;;;;;;4929743;29;20051;-81
2023/06/21 08:54:04;;;;;;;8.45;4.18;;;21.60;69.50;;;;;;4929723;28;20048;-80
2023/06/21 08:56:38;;;;;;;7.47;4.95;;;21.70;69.90;;;;;;4933431;28;20067;-79
2023/06/21 08:59:09;;;;;;;7.60;4.57;;;21.70;70.10;;;;;;4929744;28;20057;-77
2023/06/21 09:01:45;;;;;;;6.90;4.10;;;21.70;70.00;;;;;;4921651;29;20056;-77
2023/06/21 09:04:19;;;;;;;6.93;3.13;;;21.70;69.80;;;;;;4929389;29;20067;-76
2023/06/21 09:06:46;;;;;;;4.90;1.80;;;21.80;69.70;;;;;;4928546;29;20052;-77
2023/06/21 09:09:23;;;;;;;4.10;1.83;;;21.80;69.60;;;;;;4946809;28;20048;-77
2023/06/21 09:11:58;;;;;;;6.50;2.90;;;21.90;67.50;;;;;;4926813;29;20106;-76
2023/06/21 09:14:31;;;;;;;8.00;2.57;;;21.90;67.60;;;;;;4934312;28;20209;-76
2023/06/21 09:17:00;;;;;;;4.32;1.98;;;21.90;67.40;;;;;;4930409;29;20063;-77
2023/06/21 09:19:28;;;;;;;5.35;2.35;;;21.90;67.00;;;;;;4946248;28;20514;-76
2023/06/21 09:21:57;;;;;;;5.30;2.80;;;21.90;68.00;;;;;;4931837;29;20139;-77
2023/06/21 09:24:24;;;;;;;6.05;2.92;;;22.00;67.60;;;;;;4946744;28;20052;-76
2023/06/21 09:26:52;;;;;;;7.27;3.70;;;22.00;67.20;;;;;;4925932;29;20055;-77
2023/06/21 09:29:21;;;;;;;8.05;4.03;;;22.00;67.10;;;;;;4929865;29;20056;-74
2023/06/21 09:31:48;;;;;;;6.55;3.92;;;22.10;67.50;;;;;;4930807;28;20048;-77
2023/06/21 09:34:15;;;;;;;8.07;3.83;;;22.10;67.50;;;;;;4929165;29;20064;-77
2023/06/21 09:36:42;;;;;;;7.38;3.65;;;22.10;67.80;;;;;;4929052;28;20052;-74
2023/06/21 09:39:10;;;;;;;6.43;3.20;;;22.10;68.60;;;;;;4929631;29;20053;-77
2023/06/21 09:41:38;;;;;;;7.28;3.70;;;22.10;68.00;;;;;;4928605;29;20072;-77
2023/06/21 09:44:06;;;;;;;6.75;3.50;;;22.10;67.90;;;;;;4930462;29;20058;-78
2023/06/21 09:46:34;;;;;;;5.82;3.75;;;22.20;68.20;;;;;;4913571;29;20058;-78
2023/06/21 09:49:08;;;;;;;6.30;3.72;;;22.20;67.30;;;;;;4946772;28;20116;-78
2023/06/21 09:51:42;;;;;;;7.03;3.93;;;22.20;67.60;;;;;;4913999;29;20052;-77
2023/06/21 09:54:10;;;;;;;6.30;3.47;;;22.20;67.60;;;;;;4927876;29;20053;-75
2023/06/21 09:56:38;;;;;;;6.93;3.30;;;22.20;67.80;;;;;;4939821;28;20064;-76
2023/06/21 09:59:14;;;;;;;7.25;3.90;;;22.20;66.90;;;;;;4930341;28;20052;-75
2023/06/21 10:01:45;;;;;;;7.45;3.95;;;22.20;66.80;;;;;;4930147;29;20087;-75
2023/06/21 10:04:14;;;;;;;6.57;3.40;;;22.20;67.20;;;;;;4928624;29;20157;-72
2023/06/21 10:06:49;;;;;;;7.13;4.03;;;22.20;67.20;;;;;;4926988;28;20056;-76
2023/06/21 10:09:16;;;;;;;7.20;4.00;;;22.20;67.80;;;;;;4930467;29;20058;-75
2023/06/21 10:11:44;;;;;;;7.45;3.90;;;22.20;68.20;;;;;;4930881;29;20048;-78
2023/06/21 10:14:21;;;;;;;6.32;4.22;;;22.30;68.50;;;;;;4942069;28;20064;-76
2023/06/21 10:16:52;;;;;;;8.23;4.90;;;22.30;68.60;;;;;;4925776;29;20499;-75
2023/06/21 10:19:22;;;;;;;8.73;4.95;;;22.30;68.70;;;;;;4920524;29;20061;-75
2023/06/21 10:21:52;;;;;;;6.82;3.58;;;22.40;68.70;;;;;;4926223;29;20454;-75
2023/06/21 10:24:22;;;;;;;5.13;3.08;;;22.50;68.70;;;;;;4939619;28;20568;-75
2023/06/21 10:26:50;;;;;;;5.88;3.15;;;22.50;68.30;;;;;;4923022;29;20044;-75
2023/06/21 10:29:18;;;;;;;5.27;2.90;;;22.50;67.70;;;;;;4948178;28;20061;-76
2023/06/21 10:31:47;;;;;;;5.10;2.50;;;22.60;66.20;;;;;;4929651;29;20135;-75
2023/06/21 10:34:24;;;;;;;4.80;2.40;;;22.60;65.90;;;;;;4927252;29;20057;-76
2023/06/21 10:36:58;;;;;;;4.95;2.80;;;22.70;65.20;;;;;;4925090;29;20079;-77
2023/06/21 10:39:27;;;;;;;5.30;2.35;;;22.80;64.90;;;;;;4940419;28;20155;-76
2023/06/21 10:41:54;;;;;;;4.13;2.33;;;22.80;64.40;;;;;;4928019;28;20064;-76
2023/06/21 10:44:21;;;;;;;5.75;2.50;;;22.90;64.50;;;;;;4927329;29;20059;-76
2023/06/21 10:46:49;;;;;;;4.20;2.50;;;22.90;63.80;;;;;;4928206;29;20056;-76
2023/06/21 10:49:19;;;;;;;6.53;2.58;;;22.90;64.10;;;;;;4928576;29;20147;-76
2023/06/21 10:51:48;;;;;;;5.55;2.80;;;23.00;63.90;;;;;;4933959;28;20052;-76
2023/06/21 10:54:16;;;;;;;5.93;3.33;;;23.00;63.70;;;;;;4928442;29;20167;-75
2023/06/21 10:56:44;;;;;;;5.90;2.83;;;23.10;63.80;;;;;;4929529;29;20128;-73
2023/06/21 10:59:11;;;;;;;6.10;2.72;;;23.10;63.80;;;;;;4928390;29;20058;-75
2023/06/21 11:01:39;;;;;;;4.07;2.17;;;23.20;63.30;;;;;;4929312;29;20514;-74
2023/06/21 11:04:06;;;;;;;4.30;2.35;;;23.20;62.50;;;;;;4941881;28;20060;-74
2023/06/21 11:06:37;;;;;;;3.50;1.80;;;23.20;62.20;;;;;;4929537;29;20058;-76
2023/06/21 11:09:10;;;;;;;6.15;2.47;;;23.20;60.20;;;;;;4940614;28;20049;-79
2023/06/21 11:11:37;;;;;;;5.15;2.50;;;23.20;61.10;;;;;;4929617;29;20048;-73
2023/06/21 11:14:05;;;;;;;5.28;2.60;;;23.10;61.90;;;;;;4944385;28;20099;-79
2023/06/21 11:16:33;;;;;;;5.60;2.97;;;23.10;62.20;;;;;;4930053;29;20099;-76
2023/06/21 11:19:05;;;;;;;5.90;3.50;;;23.10;62.30;;;;;;4928630;29;20830;-80
2023/06/21 11:21:40;;;;;;;6.75;3.58;;;23.10;63.00;;;;;;4910792;29;20049;-80
2023/06/21 11:24:09;;;;;;;5.20;2.83;;;23.10;63.00;;;;;;4942371;28;20052;-75
2023/06/21 11:26:58;;;;;;;5.97;3.33;;;23.10;63.00;;;;;;4915580;28;20135;-77
2023/06/21 11:29:40;;;;;;;6.93;3.72;;;23.20;62.20;;;;;;4929683;29;20072;-73
2023/06/21 11:32:09;;;;;;;5.07;2.90;;;23.20;62.60;;;;;;4916333;28;20048;-73
2023/06/21 11:34:36;;;;;;;5.82;3.30;;;23.20;62.40;;;;;;4929890;28;20063;-73
2023/06/21 11:37:33;;;;;;;4.97;3.03;;;23.20;62.80;;;;;;4928280;29;20063;-74
2023/06/21 11:40:01;;;;;;;6.07;2.80;;;23.20;63.20;;;;;;4957899;28;20660;-74
2023/06/21 11:42:32;;;;;;;5.15;3.03;;;23.30;62.60;;;;;;4926720;29;20132;-74
2023/06/21 11:45:17;;;;;;;5.40;3.00;;;23.30;61.40;;;;;;4927191;28;20104;-74
2023/06/21 11:47:58;;;;;;;4.93;3.00;;;23.40;62.30;;;;;;4928069;29;20508;-74
2023/06/21 11:50:32;;;;;;;7.05;2.80;;;23.40;62.30;;;;;;4927663;29;20071;-74
2023/06/21 11:53:14;;;;;;;6.22;3.22;;;23.50;61.10;;;;;;4927427;28;20139;-72
2023/06/21 11:55:42;;;;;;;6.13;3.50;;;23.60;61.30;;;;;;4926049;28;20468;-74
2023/06/21 11:58:09;;;;;;;6.47;3.50;;;23.70;61.20;;;;;;4927031;28;20507;-74
2023/06/21 12:00:37;;;;;;;6.28;3.40;;;23.80;60.90;;;;;;4942118;28;20055;-74
2023/06/21 12:03:06;;;;;;;6.18;3.40;;;23.90;59.60;;;;;;4929271;28;20138;-74
2023/06/21 12:05:51;;;;;;;6.25;3.20;;;23.90;59.90;;;;;;4946598;28;20048;-73
2023/06/21 12:08:21;;;;;;;7.45;3.35;;;24.00;58.20;;;;;;4931822;29;20472;-73
2023/06/21 12:10:49;;;;;;;5.03;2.20;;;24.00;58.70;;;;;;4931057;29;20052;-73
2023/06/21 12:13:18;;;;;;;5.22;2.88;;;24.00;57.60;;;;;;4946240;28;20411;-76
2023/06/21 12:15:52;;;;;;;5.53;2.90;;;24.00;56.70;;;;;;4923419;28;20056;-76
2023/06/21 12:18:19;;;;;;;5.15;2.03;;;24.00;57.80;;;;;;4928866;28;20060;-78
2023/06/21 12:20:46;;;;;;;5.65;3.30;;;24.00;59.00;;;;;;4931560;29;20048;-79
2023/06/21 12:23:13;;;;;;;4.30;2.30;;;24.00;59.00;;;;;;4926268;29;20533;-77
2023/06/21 12:25:47;;;;;;;7.75;3.30;;;24.20;59.10;;;;;;4916577;29;20056;-78
2023/06/21 12:28:14;;;;;;;6.38;3.40;;;24.20;58.00;;;;;;4918622;29;20847;-75
2023/06/21 12:30:49;;;;;;;6.22;3.30;;;24.20;58.30;;;;;;4940941;28;20189;-75
2023/06/21 12:33:16;;;;;;;7.70;3.53;;;24.30;58.20;;;;;;4956347;28;20060;-79
2023/06/21 12:35:44;;;;;;;6.90;3.93;;;24.30;58.40;;;;;;4945919;28;20508;-78
2023/06/21 12:38:14;;;;;;;7.45;3.80;;;24.40;58.20;;;;;;4930993;29;20044;-79
2023/06/21 12:40:54;;;;;;;6.25;3.25;;;24.40;57.90;;;;;;4931092;29;20055;-78
2023/06/21 12:43:35;;;;;;;6.07;3.28;;;24.40;58.00;;;;;;4933882;29;20103;-78
2023/06/21 12:46:03;;;;;;;6.85;3.63;;;24.50;56.50;;;;;;4948313;28;20052;-79